sensor_id;sensor_type;location;lat;lon;timestamp;pressure;altitude;pressure_sealevel;temperature
76901;BMP280;65859;43.020;25.096;2023-05-19T00:02:21;99390.16;;;14.64
76901;BMP280;65859;43.020;25.096;2023-05-19T00:04:48;99388.28;;;14.64
76901;BMP280;65859;43.020;25.096;2023-05-19T00:07:17;99391.25;;;14.63
76901;BMP280;65859;43.020;25.096;2023-05-19T00:09:46;99392.56;;;14.53
76901;BMP280;65859;43.020;25.096;2023-05-19T00:12:13;99411.34;;;14.57
76901;BMP280;65859;43.020;25.096;2023-05-19T00:14:40;99422.53;;;14.62
76901;BMP280;65859;43.020;25.096;2023-05-19T00:17:08;99429.34;;;14.60
76901;BMP280;65859;43.020;25.096;2023-05-19T00:19:34;99438.47;;;14.43
76901;BMP280;65859;43.020;25.096;2023-05-19T00:22:00;99425.78;;;14.08
76901;BMP280;65859;43.020;25.096;2023-05-19T00:24:27;99417.03;;;14.11
76901;BMP280;65859;43.020;25.096;2023-05-19T00:26:53;99408.50;;;14.34
76901;BMP280;65859;43.020;25.096;2023-05-19T00:29:20;99395.22;;;14.53
76901;BMP280;65859;43.020;25.096;2023-05-19T00:31:46;99388.50;;;14.59
76901;BMP280;65859;43.020;25.096;2023-05-19T00:34:12;99397.66;;;14.58
76901;BMP280;65859;43.020;25.096;2023-05-19T00:36:39;99397.72;;;14.62
76901;BMP280;65859;43.020;25.096;2023-05-19T00:39:05;99404.69;;;14.66
76901;BMP280;65859;43.020;25.096;2023-05-19T00:41:31;99397.72;;;14.62
76901;BMP280;65859;43.020;25.096;2023-05-19T00:43:58;99400.75;;;14.60
76901;BMP280;65859;43.020;25.096;2023-05-19T00:46:24;99400.06;;;14.63
76901;BMP280;65859;43.020;25.096;2023-05-19T00:48:52;99404.44;;;14.71
76901;BMP280;65859;43.020;25.096;2023-05-19T00:51:18;99414.25;;;14.83
76901;BMP280;65859;43.020;25.096;2023-05-19T00:53:45;99414.19;;;14.80
76901;BMP280;65859;43.020;25.096;2023-05-19T00:56:14;99408.31;;;14.90
76901;BMP280;65859;43.020;25.096;2023-05-19T00:58:41;99406.59;;;14.66
76901;BMP280;65859;43.020;25.096;2023-05-19T01:01:08;99406.22;;;14.83
76901;BMP280;65859;43.020;25.096;2023-05-19T01:03:37;99400.75;;;14.76
76901;BMP280;65859;43.020;25.096;2023-05-19T01:06:06;99398.22;;;14.83
76901;BMP280;65859;43.020;25.096;2023-05-19T01:08:34;99400.84;;;14.64
76901;BMP280;65859;43.020;25.096;2023-05-19T01:11:00;99392.91;;;14.67
76901;BMP280;65859;43.020;25.096;2023-05-19T01:13:28;99393.50;;;14.77
76901;BMP280;65859;43.020;25.096;2023-05-19T01:26:54;99405.38;;;14.79
76901;BMP280;65859;43.020;25.096;2023-05-19T01:29:31;99402.63;;;14.44
76901;BMP280;65859;43.020;25.096;2023-05-19T01:32:04;99397.91;;;14.69
76901;BMP280;65859;43.020;25.096;2023-05-19T01:34:32;99398.25;;;14.67
76901;BMP280;65859;43.020;25.096;2023-05-19T01:37:00;99397.41;;;14.63
76901;BMP280;65859;43.020;25.096;2023-05-19T01:39:28;99405.13;;;14.37
76901;BMP280;65859;43.020;25.096;2023-05-19T01:41:54;99406.25;;;14.36
76901;BMP280;65859;43.020;25.096;2023-05-19T01:44:23;99407.06;;;14.52
76901;BMP280;65859;43.020;25.096;2023-05-19T01:46:49;99406.50;;;14.62
76901;BMP280;65859;43.020;25.096;2023-05-19T01:49:16;99409.72;;;14.52
76901;BMP280;65859;43.020;25.096;2023-05-19T01:51:44;99409.06;;;14.59
76901;BMP280;65859;43.020;25.096;2023-05-19T01:54:11;99404.22;;;14.45
76901;BMP280;65859;43.020;25.096;2023-05-19T01:57:15;99408.75;;;14.44
76901;BMP280;65859;43.020;25.096;2023-05-19T02:02:39;99412.56;;;14.59
76901;BMP280;65859;43.020;25.096;2023-05-19T02:05:30;99406.41;;;14.59
76901;BMP280;65859;43.020;25.096;2023-05-19T02:08:29;99415.75;;;14.49
76901;BMP280;65859;43.020;25.096;2023-05-19T02:11:09;99424.84;;;14.48
76901;BMP280;65859;43.020;25.096;2023-05-19T02:13:42;99425.31;;;14.34
76901;BMP280;65859;43.020;25.096;2023-05-19T02:16:10;99430.28;;;14.36
76901;BMP280;65859;43.020;25.096;2023-05-19T02:18:39;99425.66;;;14.49
76901;BMP280;65859;43.020;25.096;2023-05-19T02:21:11;99423.72;;;14.33
76901;BMP280;65859;43.020;25.096;2023-05-19T02:23:40;99422.13;;;14.01
76901;BMP280;65859;43.020;25.096;2023-05-19T02:26:07;99424.53;;;14.06
76901;BMP280;65859;43.020;25.096;2023-05-19T02:28:36;99422.41;;;13.83
76901;BMP280;65859;43.020;25.096;2023-05-19T02:31:03;99420.34;;;13.93
76901;BMP280;65859;43.020;25.096;2023-05-19T02:33:34;99432.59;;;14.22
76901;BMP280;65859;43.020;25.096;2023-05-19T02:36:01;99441.13;;;14.27
76901;BMP280;65859;43.020;25.096;2023-05-19T02:38:28;99443.34;;;14.25
76901;BMP280;65859;43.020;25.096;2023-05-19T02:40:54;99452.28;;;14.17
76901;BMP280;65859;43.020;25.096;2023-05-19T02:43:20;99454.38;;;14.24
76901;BMP280;65859;43.020;25.096;2023-05-19T02:45:47;99456.56;;;14.34
76901;BMP280;65859;43.020;25.096;2023-05-19T02:48:13;99459.81;;;14.43
76901;BMP280;65859;43.020;25.096;2023-05-19T02:50:39;99467.31;;;14.37
76901;BMP280;65859;43.020;25.096;2023-05-19T02:53:06;99469.06;;;14.45
76901;BMP280;65859;43.020;25.096;2023-05-19T02:55:33;99478.38;;;14.24
76901;BMP280;65859;43.020;25.096;2023-05-19T02:57:59;99470.63;;;14.62
76901;BMP280;65859;43.020;25.096;2023-05-19T03:00:26;99477.06;;;14.61
76901;BMP280;65859;43.020;25.096;2023-05-19T03:02:52;99467.75;;;14.55
76901;BMP280;65859;43.020;25.096;2023-05-19T03:05:19;99477.75;;;14.42
76901;BMP280;65859;43.020;25.096;2023-05-19T03:07:45;99481.72;;;14.49
76901;BMP280;65859;43.020;25.096;2023-05-19T03:10:12;99480.16;;;14.48
76901;BMP280;65859;43.020;25.096;2023-05-19T03:12:38;99479.25;;;14.56
76901;BMP280;65859;43.020;25.096;2023-05-19T03:15:05;99490.97;;;14.67
76901;BMP280;65859;43.020;25.096;2023-05-19T03:17:32;99496.81;;;14.29
76901;BMP280;65859;43.020;25.096;2023-05-19T03:19:59;99495.38;;;14.31
76901;BMP280;65859;43.020;25.096;2023-05-19T03:22:26;99493.19;;;14.65
76901;BMP280;65859;43.020;25.096;2023-05-19T03:24:52;99493.09;;;14.45
76901;BMP280;65859;43.020;25.096;2023-05-19T03:27:20;99493.84;;;14.30
76901;BMP280;65859;43.020;25.096;2023-05-19T03:29:46;99491.47;;;14.72
76901;BMP280;65859;43.020;25.096;2023-05-19T03:32:13;99490.34;;;14.73
76901;BMP280;65859;43.020;25.096;2023-05-19T03:34:39;99489.00;;;14.36
76901;BMP280;65859;43.020;25.096;2023-05-19T03:37:05;99486.63;;;14.47
76901;BMP280;65859;43.020;25.096;2023-05-19T03:39:32;99498.44;;;14.61
76901;BMP280;65859;43.020;25.096;2023-05-19T03:41:59;99500.19;;;14.69
76901;BMP280;65859;43.020;25.096;2023-05-19T03:44:25;99497.66;;;14.61
76901;BMP280;65859;43.020;25.096;2023-05-19T03:46:51;99500.06;;;14.66
76901;BMP280;65859;43.020;25.096;2023-05-19T03:49:18;99507.75;;;14.67
76901;BMP280;65859;43.020;25.096;2023-05-19T03:51:44;99512.25;;;14.95
76901;BMP280;65859;43.020;25.096;2023-05-19T03:54:11;99499.75;;;14.83
76901;BMP280;65859;43.020;25.096;2023-05-19T03:56:38;99513.78;;;14.49
76901;BMP280;65859;43.020;25.096;2023-05-19T03:59:06;99523.78;;;14.67
76901;BMP280;65859;43.020;25.096;2023-05-19T04:01:33;99516.78;;;14.63
76901;BMP280;65859;43.020;25.096;2023-05-19T04:03:59;99512.72;;;14.53
76901;BMP280;65859;43.020;25.096;2023-05-19T04:06:25;99520.69;;;15.28
76901;BMP280;65859;43.020;25.096;2023-05-19T04:08:52;99508.84;;;15.45
76901;BMP280;65859;43.020;25.096;2023-05-19T04:11:18;99516.25;;;15.36
76901;BMP280;65859;43.020;25.096;2023-05-19T04:13:45;99515.00;;;15.14
76901;BMP280;65859;43.020;25.096;2023-05-19T04:16:11;99527.09;;;14.92
76901;BMP280;65859;43.020;25.096;2023-05-19T04:18:38;99525.03;;;14.42
76901;BMP280;65859;43.020;25.096;2023-05-19T04:21:04;99532.75;;;14.59
76901;BMP280;65859;43.020;25.096;2023-05-19T04:23:33;99522.63;;;14.53
76901;BMP280;65859;43.020;25.096;2023-05-19T04:25:59;99528.47;;;15.02
76901;BMP280;65859;43.020;25.096;2023-05-19T04:28:27;99532.09;;;14.94
76901;BMP280;65859;43.020;25.096;2023-05-19T04:30:55;99528.72;;;15.13
76901;BMP280;65859;43.020;25.096;2023-05-19T04:33:23;99530.91;;;15.42
76901;BMP280;65859;43.020;25.096;2023-05-19T04:35:50;99531.34;;;16.37
76901;BMP280;65859;43.020;25.096;2023-05-19T04:38:16;99543.03;;;17.47
76901;BMP280;65859;43.020;25.096;2023-05-19T04:40:45;99543.47;;;18.53
76901;BMP280;65859;43.020;25.096;2023-05-19T04:43:11;99547.41;;;18.63
76901;BMP280;65859;43.020;25.096;2023-05-19T04:45:37;99546.03;;;18.83
76901;BMP280;65859;43.020;25.096;2023-05-19T04:48:07;99548.03;;;18.46
76901;BMP280;65859;43.020;25.096;2023-05-19T04:50:33;99553.28;;;17.64
76901;BMP280;65859;43.020;25.096;2023-05-19T04:53:03;99551.16;;;16.75
76901;BMP280;65859;43.020;25.096;2023-05-19T04:55:29;99547.47;;;17.06
76901;BMP280;65859;43.020;25.096;2023-05-19T04:57:56;99547.72;;;17.01
76901;BMP280;65859;43.020;25.096;2023-05-19T05:00:22;99552.78;;;17.59
76901;BMP280;65859;43.020;25.096;2023-05-19T05:02:48;99554.03;;;17.95
76901;BMP280;65859;43.020;25.096;2023-05-19T05:05:15;99556.44;;;18.07
76901;BMP280;65859;43.020;25.096;2023-05-19T05:07:42;99552.72;;;18.15
76901;BMP280;65859;43.020;25.096;2023-05-19T05:10:09;99556.97;;;17.03
76901;BMP280;65859;43.020;25.096;2023-05-19T05:12:35;99562.88;;;17.65
76901;BMP280;65859;43.020;25.096;2023-05-19T05:15:02;99556.44;;;17.74
76901;BMP280;65859;43.020;25.096;2023-05-19T05:17:30;99557.50;;;18.33
76901;BMP280;65859;43.020;25.096;2023-05-19T05:19:56;99559.00;;;17.96
76901;BMP280;65859;43.020;25.096;2023-05-19T05:22:23;99558.63;;;18.28
76901;BMP280;65859;43.020;25.096;2023-05-19T05:24:49;99569.06;;;18.40
76901;BMP280;65859;43.020;25.096;2023-05-19T05:27:16;99561.91;;;18.51
76901;BMP280;65859;43.020;25.096;2023-05-19T05:29:42;99564.44;;;18.74
76901;BMP280;65859;43.020;25.096;2023-05-19T05:32:08;99565.34;;;18.93
76901;BMP280;65859;43.020;25.096;2023-05-19T05:34:36;99564.28;;;18.56
76901;BMP280;65859;43.020;25.096;2023-05-19T05:37:04;99559.97;;;18.96
76901;BMP280;65859;43.020;25.096;2023-05-19T05:39:31;99561.63;;;19.08
76901;BMP280;65859;43.020;25.096;2023-05-19T05:41:57;99568.84;;;19.00
76901;BMP280;65859;43.020;25.096;2023-05-19T05:44:24;99572.56;;;19.40
76901;BMP280;65859;43.020;25.096;2023-05-19T05:46:50;99569.41;;;19.27
76901;BMP280;65859;43.020;25.096;2023-05-19T05:49:17;99568.22;;;19.21
76901;BMP280;65859;43.020;25.096;2023-05-19T05:51:43;99569.69;;;19.84
76901;BMP280;65859;43.020;25.096;2023-05-19T05:54:11;99572.13;;;20.53
76901;BMP280;65859;43.020;25.096;2023-05-19T05:56:38;99570.13;;;20.00
76901;BMP280;65859;43.020;25.096;2023-05-19T05:59:06;99576.00;;;20.56
76901;BMP280;65859;43.020;25.096;2023-05-19T06:01:35;99581.81;;;20.72
76901;BMP280;65859;43.020;25.096;2023-05-19T06:04:02;99575.97;;;20.45
76901;BMP280;65859;43.020;25.096;2023-05-19T06:06:28;99584.47;;;20.61
76901;BMP280;65859;43.020;25.096;2023-05-19T06:08:58;99589.13;;;20.86
76901;BMP280;65859;43.020;25.096;2023-05-19T06:11:27;99586.00;;;21.16
76901;BMP280;65859;43.020;25.096;2023-05-19T06:13:53;99586.78;;;21.02
76901;BMP280;65859;43.020;25.096;2023-05-19T06:16:20;99583.66;;;21.07
76901;BMP280;65859;43.020;25.096;2023-05-19T06:18:46;99587.47;;;21.45
76901;BMP280;65859;43.020;25.096;2023-05-19T06:21:13;99579.16;;;21.91
76901;BMP280;65859;43.020;25.096;2023-05-19T06:23:42;99583.53;;;21.71
76901;BMP280;65859;43.020;25.096;2023-05-19T06:26:09;99581.16;;;21.73
76901;BMP280;65859;43.020;25.096;2023-05-19T06:28:35;99581.03;;;21.98
76901;BMP280;65859;43.020;25.096;2023-05-19T06:31:01;99583.97;;;21.45
76901;BMP280;65859;43.020;25.096;2023-05-19T06:33:28;99585.91;;;22.21
76901;BMP280;65859;43.020;25.096;2023-05-19T06:35:55;99583.97;;;22.21
76901;BMP280;65859;43.020;25.096;2023-05-19T06:38:22;99586.34;;;22.19
76901;BMP280;65859;43.020;25.096;2023-05-19T06:40:48;99592.63;;;21.98
76901;BMP280;65859;43.020;25.096;2023-05-19T06:43:14;99592.47;;;21.47
76901;BMP280;65859;43.020;25.096;2023-05-19T06:45:41;99587.22;;;21.98
76901;BMP280;65859;43.020;25.096;2023-05-19T06:48:07;99587.81;;;22.24
76901;BMP280;65859;43.020;25.096;2023-05-19T06:50:33;99592.81;;;22.81
76901;BMP280;65859;43.020;25.096;2023-05-19T06:53:00;99591.78;;;23.05
76901;BMP280;65859;43.020;25.096;2023-05-19T06:55:26;99592.63;;;23.67
76901;BMP280;65859;43.020;25.096;2023-05-19T06:57:53;99591.50;;;22.51
76901;BMP280;65859;43.020;25.096;2023-05-19T07:00:19;99596.13;;;21.88
76901;BMP280;65859;43.020;25.096;2023-05-19T07:02:46;99588.72;;;21.05
76901;BMP280;65859;43.020;25.096;2023-05-19T07:05:12;99594.56;;;21.98
76901;BMP280;65859;43.020;25.096;2023-05-19T07:07:40;99591.72;;;22.23
76901;BMP280;65859;43.020;25.096;2023-05-19T07:10:07;99597.88;;;22.27
76901;BMP280;65859;43.020;25.096;2023-05-19T07:12:33;99593.63;;;24.07
76901;BMP280;65859;43.020;25.096;2023-05-19T07:15:00;99597.00;;;23.57
76901;BMP280;65859;43.020;25.096;2023-05-19T07:17:26;99588.53;;;23.55
76901;BMP280;65859;43.020;25.096;2023-05-19T07:19:52;99591.81;;;24.23
76901;BMP280;65859;43.020;25.096;2023-05-19T07:22:19;99590.81;;;23.26
76901;BMP280;65859;43.020;25.096;2023-05-19T07:24:46;99587.72;;;23.58
76901;BMP280;65859;43.020;25.096;2023-05-19T07:27:12;99582.47;;;23.74
76901;BMP280;65859;43.020;25.096;2023-05-19T07:29:38;99586.50;;;23.63
76901;BMP280;65859;43.020;25.096;2023-05-19T07:32:05;99577.84;;;24.48
76901;BMP280;65859;43.020;25.096;2023-05-19T07:34:31;99581.50;;;24.38
76901;BMP280;65859;43.020;25.096;2023-05-19T07:36:58;99582.41;;;24.75
76901;BMP280;65859;43.020;25.096;2023-05-19T07:39:25;99580.81;;;24.77
76901;BMP280;65859;43.020;25.096;2023-05-19T07:41:54;99574.41;;;25.07
76901;BMP280;65859;43.020;25.096;2023-05-19T07:44:21;99577.94;;;24.65
76901;BMP280;65859;43.020;25.096;2023-05-19T07:46:48;99587.16;;;23.40
76901;BMP280;65859;43.020;25.096;2023-05-19T07:49:14;99581.56;;;24.35
76901;BMP280;65859;43.020;25.096;2023-05-19T07:51:40;99588.66;;;24.02
76901;BMP280;65859;43.020;25.096;2023-05-19T07:54:07;99583.66;;;23.97
76901;BMP280;65859;43.020;25.096;2023-05-19T07:56:33;99576.03;;;25.24
76901;BMP280;65859;43.020;25.096;2023-05-19T07:59:00;99583.66;;;25.85
76901;BMP280;65859;43.020;25.096;2023-05-19T08:01:26;99578.31;;;25.06
76901;BMP280;65859;43.020;25.096;2023-05-19T08:03:53;99585.09;;;24.05
76901;BMP280;65859;43.020;25.096;2023-05-19T08:06:19;99582.66;;;24.84
76901;BMP280;65859;43.020;25.096;2023-05-19T08:08:46;99578.13;;;24.97
76901;BMP280;65859;43.020;25.096;2023-05-19T08:11:14;99586.75;;;25.68
76901;BMP280;65859;43.020;25.096;2023-05-19T08:13:40;99578.53;;;26.36
76901;BMP280;65859;43.020;25.096;2023-05-19T08:16:06;99584.28;;;26.54
76901;BMP280;65859;43.020;25.096;2023-05-19T08:18:33;99583.53;;;24.07
76901;BMP280;65859;43.020;25.096;2023-05-19T08:20:59;99589.63;;;24.62
76901;BMP280;65859;43.020;25.096;2023-05-19T08:23:26;99589.13;;;24.90
76901;BMP280;65859;43.020;25.096;2023-05-19T08:25:52;99592.53;;;24.28
76901;BMP280;65859;43.020;25.096;2023-05-19T08:28:19;99597.31;;;25.30
76901;BMP280;65859;43.020;25.096;2023-05-19T08:30:45;99596.75;;;25.54
76901;BMP280;65859;43.020;25.096;2023-05-19T08:33:11;99590.56;;;24.51
76901;BMP280;65859;43.020;25.096;2023-05-19T08:35:38;99600.53;;;24.81
76901;BMP280;65859;43.020;25.096;2023-05-19T08:38:04;99592.09;;;24.96
76901;BMP280;65859;43.020;25.096;2023-05-19T08:40:30;99594.25;;;25.64
76901;BMP280;65859;43.020;25.096;2023-05-19T08:42:59;99604.09;;;25.38
76901;BMP280;65859;43.020;25.096;2023-05-19T08:45:26;99606.50;;;26.82
76901;BMP280;65859;43.020;25.096;2023-05-19T08:47:53;99610.97;;;26.47
76901;BMP280;65859;43.020;25.096;2023-05-19T08:50:23;99611.47;;;27.00
76901;BMP280;65859;43.020;25.096;2023-05-19T08:58:30;99628.94;;;31.96
76901;BMP280;65859;43.020;25.096;2023-05-19T09:00:57;99630.53;;;30.52
76901;BMP280;65859;43.020;25.096;2023-05-19T09:03:25;99623.72;;;29.53
76901;BMP280;65859;43.020;25.096;2023-05-19T09:05:53;99594.66;;;25.26
76901;BMP280;65859;43.020;25.096;2023-05-19T09:08:20;99604.50;;;25.56
76901;BMP280;65859;43.020;25.096;2023-05-19T09:10:47;99598.53;;;25.97
76901;BMP280;65859;43.020;25.096;2023-05-19T09:13:15;99630.22;;;29.15
76901;BMP280;65859;43.020;25.096;2023-05-19T09:15:41;99622.22;;;31.73
76901;BMP280;65859;43.020;25.096;2023-05-19T09:18:11;99627.34;;;31.80
76901;BMP280;65859;43.020;25.096;2023-05-19T09:24:36;99594.84;;;29.61
76901;BMP280;65859;43.020;25.096;2023-05-19T09:27:05;99617.59;;;26.75
76901;BMP280;65859;43.020;25.096;2023-05-19T09:29:31;99628.00;;;32.81
76901;BMP280;65859;43.020;25.096;2023-05-19T09:31:58;99611.41;;;31.93
76901;BMP280;65859;43.020;25.096;2023-05-19T09:38:17;99624.47;;;35.32
76901;BMP280;65859;43.020;25.096;2023-05-19T09:40:44;99622.78;;;35.51
76901;BMP280;65859;43.020;25.096;2023-05-19T09:43:13;99624.09;;;35.66
76901;BMP280;65859;43.020;25.096;2023-05-19T09:45:41;99614.63;;;34.51
76901;BMP280;65859;43.020;25.096;2023-05-19T09:48:07;99621.72;;;36.41
76901;BMP280;65859;43.020;25.096;2023-05-19T09:50:34;99616.38;;;33.21
76901;BMP280;65859;43.020;25.096;2023-05-19T09:53:01;99622.22;;;36.34
76901;BMP280;65859;43.020;25.096;2023-05-19T09:55:29;99619.53;;;35.47
76901;BMP280;65859;43.020;25.096;2023-05-19T09:57:57;99606.28;;;29.68
76901;BMP280;65859;43.020;25.096;2023-05-19T10:00:31;99607.44;;;27.04
76901;BMP280;65859;43.020;25.096;2023-05-19T10:02:59;99609.13;;;27.14
76901;BMP280;65859;43.020;25.096;2023-05-19T10:05:27;99580.31;;;26.72
76901;BMP280;65859;43.020;25.096;2023-05-19T10:07:54;99593.44;;;27.31
76901;BMP280;65859;43.020;25.096;2023-05-19T10:10:21;99579.19;;;27.40
76901;BMP280;65859;43.020;25.096;2023-05-19T10:12:49;99575.44;;;27.34
76901;BMP280;65859;43.020;25.096;2023-05-19T10:15:17;99576.97;;;27.73
76901;BMP280;65859;43.020;25.096;2023-05-19T10:17:45;99574.69;;;28.75
76901;BMP280;65859;43.020;25.096;2023-05-19T10:20:15;99576.34;;;29.25
76901;BMP280;65859;43.020;25.096;2023-05-19T10:22:44;99565.28;;;27.85
76901;BMP280;65859;43.020;25.096;2023-05-19T10:25:11;99557.66;;;27.16
76901;BMP280;65859;43.020;25.096;2023-05-19T10:27:56;99560.69;;;27.82
76901;BMP280;65859;43.020;25.096;2023-05-19T10:30:31;99546.22;;;27.47
76901;BMP280;65859;43.020;25.096;2023-05-19T10:32:59;99553.44;;;28.48
76901;BMP280;65859;43.020;25.096;2023-05-19T10:41:49;99550.47;;;27.35
76901;BMP280;65859;43.020;25.096;2023-05-19T10:46:47;99542.84;;;27.17
76901;BMP280;65859;43.020;25.096;2023-05-19T10:49:22;99544.00;;;26.33
76901;BMP280;65859;43.020;25.096;2023-05-19T10:51:48;99535.59;;;26.85
76901;BMP280;65859;43.020;25.096;2023-05-19T10:54:17;99538.56;;;26.33
76901;BMP280;65859;43.020;25.096;2023-05-19T10:57:04;99534.66;;;27.30
76901;BMP280;65859;43.020;25.096;2023-05-19T10:59:40;99538.69;;;27.13
76901;BMP280;65859;43.020;25.096;2023-05-19T11:02:10;99534.19;;;27.06
76901;BMP280;65859;43.020;25.096;2023-05-19T11:05:15;99528.84;;;27.15
76901;BMP280;65859;43.020;25.096;2023-05-19T11:07:53;99526.47;;;26.34
76901;BMP280;65859;43.020;25.096;2023-05-19T11:10:23;99528.56;;;26.72
76901;BMP280;65859;43.020;25.096;2023-05-19T11:12:50;99518.78;;;26.74
76901;BMP280;65859;43.020;25.096;2023-05-19T11:15:17;99516.03;;;26.74
76901;BMP280;65859;43.020;25.096;2023-05-19T11:17:48;99514.31;;;26.93
76901;BMP280;65859;43.020;25.096;2023-05-19T11:20:25;99514.28;;;26.68
76901;BMP280;65859;43.020;25.096;2023-05-19T11:25:48;99514.41;;;25.38
76901;BMP280;65859;43.020;25.096;2023-05-19T11:28:20;99516.00;;;26.04
76901;BMP280;65859;43.020;25.096;2023-05-19T11:30:53;99507.63;;;25.95
76901;BMP280;65859;43.020;25.096;2023-05-19T11:33:20;99505.38;;;25.93
76901;BMP280;65859;43.020;25.096;2023-05-19T11:35:53;99503.31;;;25.97
76901;BMP280;65859;43.020;25.096;2023-05-19T11:38:20;99510.81;;;25.24
76901;BMP280;65859;43.020;25.096;2023-05-19T11:40:51;99492.16;;;25.91
76901;BMP280;65859;43.020;25.096;2023-05-19T11:43:18;99491.81;;;25.41
76901;BMP280;65859;43.020;25.096;2023-05-19T11:45:44;99497.38;;;26.31
76901;BMP280;65859;43.020;25.096;2023-05-19T11:48:11;99497.56;;;25.27
76901;BMP280;65859;43.020;25.096;2023-05-19T11:50:42;99481.44;;;25.19
76901;BMP280;65859;43.020;25.096;2023-05-19T11:53:11;99492.34;;;25.68
76901;BMP280;65859;43.020;25.096;2023-05-19T11:55:45;99481.47;;;25.84
76901;BMP280;65859;43.020;25.096;2023-05-19T11:58:12;99484.75;;;26.08
76901;BMP280;65859;43.020;25.096;2023-05-19T12:00:39;99474.09;;;25.85
76901;BMP280;65859;43.020;25.096;2023-05-19T12:03:06;99472.81;;;25.57
76901;BMP280;65859;43.020;25.096;2023-05-19T12:05:37;99471.59;;;25.58
76901;BMP280;65859;43.020;25.096;2023-05-19T12:08:04;99467.47;;;26.15
76901;BMP280;65859;43.020;25.096;2023-05-19T12:10:31;99460.34;;;25.60
76901;BMP280;65859;43.020;25.096;2023-05-19T12:13:01;99466.59;;;25.89
76901;BMP280;65859;43.020;25.096;2023-05-19T12:15:28;99458.53;;;25.69
76901;BMP280;65859;43.020;25.096;2023-05-19T12:17:58;99456.78;;;26.08
76901;BMP280;65859;43.020;25.096;2023-05-19T12:20:25;99448.75;;;25.88
76901;BMP280;65859;43.020;25.096;2023-05-19T12:22:55;99454.13;;;25.59
76901;BMP280;65859;43.020;25.096;2023-05-19T12:25:22;99449.38;;;25.47
76901;BMP280;65859;43.020;25.096;2023-05-19T12:27:48;99444.41;;;25.74
76901;BMP280;65859;43.020;25.096;2023-05-19T12:30:18;99450.78;;;26.00
76901;BMP280;65859;43.020;25.096;2023-05-19T12:32:52;99451.94;;;24.82
76901;BMP280;65859;43.020;25.096;2023-05-19T12:35:18;99456.22;;;24.99
76901;BMP280;65859;43.020;25.096;2023-05-19T12:37:45;99453.97;;;24.38
76901;BMP280;65859;43.020;25.096;2023-05-19T12:40:16;99443.72;;;24.26
76901;BMP280;65859;43.020;25.096;2023-05-19T12:42:46;99447.59;;;25.56
76901;BMP280;65859;43.020;25.096;2023-05-19T12:45:13;99453.91;;;25.99
76901;BMP280;65859;43.020;25.096;2023-05-19T12:47:40;99451.00;;;26.06
76901;BMP280;65859;43.020;25.096;2023-05-19T12:50:08;99443.94;;;25.63
76901;BMP280;65859;43.020;25.096;2023-05-19T12:52:43;99440.56;;;26.33
76901;BMP280;65859;43.020;25.096;2023-05-19T12:55:11;99440.81;;;26.51
76901;BMP280;65859;43.020;25.096;2023-05-19T12:57:40;99452.31;;;26.30
76901;BMP280;65859;43.020;25.096;2023-05-19T13:00:15;99446.66;;;26.66
76901;BMP280;65859;43.020;25.096;2023-05-19T13:05:21;99447.66;;;27.10
76901;BMP280;65859;43.020;25.096;2023-05-19T13:08:00;99441.44;;;26.97
76901;BMP280;65859;43.020;25.096;2023-05-19T13:10:28;99448.09;;;26.13
76901;BMP280;65859;43.020;25.096;2023-05-19T13:12:55;99438.97;;;26.07
76901;BMP280;65859;43.020;25.096;2023-05-19T13:15:24;99442.16;;;26.02
76901;BMP280;65859;43.020;25.096;2023-05-19T13:17:56;99438.25;;;26.32
76901;BMP280;65859;43.020;25.096;2023-05-19T13:20:23;99430.56;;;26.43
76901;BMP280;65859;43.020;25.096;2023-05-19T13:22:50;99438.16;;;26.89
76901;BMP280;65859;43.020;25.096;2023-05-19T13:25:18;99440.38;;;26.40
76901;BMP280;65859;43.020;25.096;2023-05-19T13:27:45;99435.03;;;26.37
76901;BMP280;65859;43.020;25.096;2023-05-19T13:30:12;99425.38;;;26.19
76901;BMP280;65859;43.020;25.096;2023-05-19T13:32:39;99418.31;;;26.22
76901;BMP280;65859;43.020;25.096;2023-05-19T13:35:05;99411.63;;;26.39
76901;BMP280;65859;43.020;25.096;2023-05-19T13:37:32;99423.19;;;26.14
76901;BMP280;65859;43.020;25.096;2023-05-19T13:39:58;99421.22;;;26.44
76901;BMP280;65859;43.020;25.096;2023-05-19T13:42:24;99427.38;;;25.74
76901;BMP280;65859;43.020;25.096;2023-05-19T13:44:55;99421.06;;;26.06
76901;BMP280;65859;43.020;25.096;2023-05-19T13:47:22;99413.91;;;25.18
76901;BMP280;65859;43.020;25.096;2023-05-19T13:49:49;99415.56;;;25.15
76901;BMP280;65859;43.020;25.096;2023-05-19T13:52:17;99413.59;;;24.80
76901;BMP280;65859;43.020;25.096;2023-05-19T13:54:43;99422.66;;;25.74
76901;BMP280;65859;43.020;25.096;2023-05-19T13:57:11;99417.75;;;26.14
76901;BMP280;65859;43.020;25.096;2023-05-19T13:59:38;99414.03;;;26.37
76901;BMP280;65859;43.020;25.096;2023-05-19T14:02:04;99423.00;;;26.21
76901;BMP280;65859;43.020;25.096;2023-05-19T14:04:32;99422.63;;;26.36
76901;BMP280;65859;43.020;25.096;2023-05-19T14:06:58;99428.75;;;26.11
76901;BMP280;65859;43.020;25.096;2023-05-19T14:09:24;99430.56;;;25.69
76901;BMP280;65859;43.020;25.096;2023-05-19T14:11:51;99438.97;;;25.09
76901;BMP280;65859;43.020;25.096;2023-05-19T14:14:17;99441.69;;;25.09
76901;BMP280;65859;43.020;25.096;2023-05-19T14:16:43;99451.63;;;24.96
76901;BMP280;65859;43.020;25.096;2023-05-19T14:19:10;99472.84;;;24.85
76901;BMP280;65859;43.020;25.096;2023-05-19T14:21:36;99523.63;;;24.21
76901;BMP280;65859;43.020;25.096;2023-05-19T14:24:15;99560.53;;;21.17
76901;BMP280;65859;43.020;25.096;2023-05-19T14:26:43;99564.47;;;20.94
76901;BMP280;65859;43.020;25.096;2023-05-19T14:29:10;99553.50;;;19.77
76901;BMP280;65859;43.020;25.096;2023-05-19T14:31:37;99590.56;;;20.19
76901;BMP280;65859;43.020;25.096;2023-05-19T14:34:03;99588.84;;;19.03
76901;BMP280;65859;43.020;25.096;2023-05-19T14:36:30;99590.34;;;19.55
76901;BMP280;65859;43.020;25.096;2023-05-19T14:38:56;99607.78;;;18.69
76901;BMP280;65859;43.020;25.096;2023-05-19T14:41:22;99609.84;;;18.46
76901;BMP280;65859;43.020;25.096;2023-05-19T14:43:49;99619.47;;;18.13